Time;durP1;ratioP1;P1;durP2;ratioP2;P2;SDS_P1;SDS_P2;PMS_P1;PMS_P2;Temp;Humidity;BMP_temperature;BMP_pressure;BME280_temperature;BME280_humidity;BME280_pressure;Samples;Min_cycle;Max_cycle;Signal;HPM_P1;HPM_P2
2020/12/06 00:00:25;;;;;;;31.90;20.15;;;;;;;8.40;75.85;99344.97;4172355;34;33523;-90
2020/12/06 00:03:10;;;;;;;35.15;19.30;;;;;;;8.63;74.55;99343.06;4185173;34;33071;-96
2020/12/06 00:05:43;;;;;;;30.42;19.05;;;;;;;8.56;74.67;99347.53;4202109;34;31848;-96
2020/12/06 00:08:28;;;;;;;29.05;18.35;;;;;;;8.40;75.89;99350.38;4197992;34;34048;-96
2020/12/06 00:11:01;;;;;;;32.40;18.67;;;;;;;8.80;74.09;99343.75;4201084;34;34357;-96
2020/12/06 00:13:49;;;;;;;32.63;18.45;;;;;;;8.43;75.77;99347.31;4202271;34;32631;-90
2020/12/06 00:16:21;;;;;;;33.97;19.58;;;;;;;8.48;75.40;99342.22;4201178;34;34167;-91
2020/12/06 00:18:54;;;;;;;31.58;19.10;;;;;;;8.59;75.23;99344.47;4211311;34;33863;-96
2020/12/06 00:21:27;;;;;;;33.00;19.45;;;;;;;8.36;76.04;99338.28;4206124;33;34892;-96
2020/12/06 00:24:21;;;;;;;34.92;20.40;;;;;;;7.97;77.83;99342.81;4198753;34;32931;-96
2020/12/06 00:27:18;;;;;;;36.05;18.50;;;;;;;8.41;75.84;99339.41;4174920;34;33145;-92
2020/12/06 00:29:50;;;;;;;33.17;20.02;;;;;;;8.57;74.92;99340.28;4172442;34;33960;-92
2020/12/06 00:32:22;;;;;;;36.40;20.12;;;;;;;8.57;74.89;99342.97;4195399;34;33628;-90
2020/12/06 00:34:55;;;;;;;34.95;20.55;;;;;;;8.56;74.80;99336.75;4201931;34;33784;-96
2020/12/06 00:37:42;;;;;;;36.03;20.10;;;;;;;8.52;74.82;99335.44;4214155;34;33579;-96
2020/12/06 00:40:30;;;;;;;34.10;19.92;;;;;;;8.28;75.52;99340.03;4219589;33;34535;-91
2020/12/06 00:43:02;;;;;;;35.25;20.17;;;;;;;8.43;74.97;99339.22;4216385;34;34391;-91
2020/12/06 00:45:34;;;;;;;32.42;19.48;;;;;;;8.42;75.32;99340.22;4198009;34;34358;-89
2020/12/06 00:48:07;;;;;;;34.08;19.73;;;;;;;8.53;74.98;99338.97;4188757;33;33362;-90
2020/12/06 00:50:39;;;;;;;33.58;19.70;;;;;;;8.71;74.00;99344.00;4223755;28;33645;-89
2020/12/06 00:53:11;;;;;;;40.17;20.77;;;;;;;8.18;76.27;99344.00;4216509;34;34356;-90
2020/12/06 00:55:44;;;;;;;34.35;20.62;;;;;;;8.43;75.47;99339.22;4194574;34;33513;-89
2020/12/06 00:58:16;;;;;;;33.67;19.40;;;;;;;7.99;77.41;99346.16;4204245;34;33423;-91
2020/12/06 01:00:49;;;;;;;32.47;18.62;;;;;;;8.24;76.50;99354.84;4188344;34;34369;-89
2020/12/06 01:03:24;;;;;;;38.28;20.08;;;;;;;8.26;76.14;99347.44;4220141;34;33752;-96
2020/12/06 01:06:19;;;;;;;34.42;18.87;;;;;;;8.43;75.59;99352.69;4204699;34;34608;-96
2020/12/06 01:08:52;;;;;;;37.03;18.62;;;;;;;8.17;76.21;99359.28;4205100;34;34797;-96
2020/12/06 01:11:48;;;;;;;29.48;18.02;;;;;;;8.36;76.07;99357.12;4196748;34;32314;-90
2020/12/06 01:14:20;;;;;;;31.00;17.33;;;;;;;8.49;75.30;99343.91;4200901;34;33489;-89
2020/12/06 01:16:52;;;;;;;34.33;19.62;;;;;;;8.32;76.41;99353.94;4218416;33;33325;-89
2020/12/06 01:19:25;;;;;;;33.72;19.12;;;;;;;8.23;76.35;99353.19;4213446;33;34309;-90
2020/12/06 01:21:57;;;;;;;32.13;19.05;;;;;;;8.31;76.34;99350.41;4214733;34;33215;-96
2020/12/06 01:24:29;;;;;;;30.35;19.10;;;;;;;8.39;76.08;99349.50;4200984;34;34784;-96
2020/12/06 01:27:03;;;;;;;31.67;18.92;;;;;;;8.15;76.94;99349.75;4201527;34;34064;-90
2020/12/06 01:29:35;;;;;;;31.00;18.42;;;;;;;8.36;75.99;99340.97;4191102;34;34096;-96
2020/12/06 01:32:21;;;;;;;35.60;19.42;;;;;;;8.17;76.92;99347.69;4184165;34;32413;-93
2020/12/06 01:34:53;;;;;;;33.42;19.00;;;;;;;8.16;76.62;99343.31;4189849;34;34512;-95
2020/12/06 01:37:41;;;;;;;33.17;19.15;;;;;;;8.31;75.99;99336.97;4189587;34;33915;-89
2020/12/06 01:40:13;;;;;;;32.80;19.60;;;;;;;8.08;76.80;99334.31;4180920;34;32778;-90
2020/12/06 01:42:45;;;;;;;32.22;19.33;;;;;;;7.94;77.01;99333.22;4204083;34;34522;-90
2020/12/06 01:45:17;;;;;;;32.38;20.37;;;;;;;8.15;76.73;99318.25;4195592;34;33635;-95
2020/12/06 01:47:53;;;;;;;37.90;19.55;;;;;;;8.24;75.81;99330.63;4194234;34;33217;-96
2020/12/06 01:50:31;;;;;;;33.83;19.25;;;;;;;7.98;76.95;99322.09;4194159;34;32523;-96
2020/12/06 01:53:16;;;;;;;30.58;18.73;;;;;;;8.19;75.97;99324.97;4192701;34;32474;-89
2020/12/06 01:55:48;;;;;;;30.83;18.42;;;;;;;8.35;75.57;99331.22;4214090;34;33757;-89
2020/12/06 01:58:25;;;;;;;34.45;20.37;;;;;;;8.20;75.95;99332.00;4201929;34;33724;-96
2020/12/06 02:00:58;;;;;;;32.15;19.27;;;;;;;8.11;76.72;99338.47;4180452;34;35133;-89
2020/12/06 02:03:31;;;;;;;35.72;19.48;;;;;;;8.34;75.61;99325.00;4202319;34;34635;-90
2020/12/06 02:06:06;;;;;;;36.28;20.95;;;;;;;8.15;76.26;99334.41;4202542;34;34746;-89
2020/12/06 02:08:39;;;;;;;31.77;20.33;;;;;;;8.24;76.15;99327.09;4206950;34;34881;-96
2020/12/06 02:11:33;;;;;;;33.92;18.48;;;;;;;8.43;75.52;99321.19;4193294;34;34459;-96
2020/12/06 02:14:06;;;;;;;29.65;17.95;;;;;;;8.13;76.33;99317.63;4176418;34;32325;-89
2020/12/06 02:16:38;;;;;;;32.00;19.20;;;;;;;8.23;75.97;99320.91;4188077;34;34652;-89
2020/12/06 02:19:11;;;;;;;30.33;18.85;;;;;;;8.17;76.47;99326.97;4193465;34;34615;-96
2020/12/06 02:22:05;;;;;;;31.92;18.50;;;;;;;7.95;77.19;99339.47;4139871;34;34642;-96
2020/12/06 02:24:37;;;;;;;34.72;19.50;;;;;;;8.28;75.79;99339.19;4207048;33;33492;-96
2020/12/06 02:27:23;;;;;;;29.90;18.98;;;;;;;8.44;74.74;99331.00;4186114;34;34532;-96
2020/12/06 02:29:55;;;;;;;32.30;18.30;;;;;;;7.95;76.40;99324.16;4187519;34;34837;-96
2020/12/06 02:32:47;;;;;;;31.58;17.45;;;;;;;8.43;74.68;99320.38;4189453;34;34824;-89
2020/12/06 02:35:19;;;;;;;29.05;18.45;;;;;;;7.99;76.07;99329.16;4195156;34;35168;-93
2020/12/06 02:37:52;;;;;;;33.63;19.35;;;;;;;7.49;78.60;99323.31;4185757;34;35008;-90
2020/12/06 02:40:24;;;;;;;33.30;18.08;;;;;;;7.67;77.68;99325.72;4186757;34;34540;-96
2020/12/06 02:43:12;;;;;;;35.58;19.70;;;;;;;7.98;76.60;99332.88;4182287;34;33911;-90
2020/12/06 02:45:44;;;;;;;28.27;18.10;;;;;;;8.16;75.64;99341.47;4198580;34;34059;-90
2020/12/06 02:48:17;;;;;;;31.10;18.37;;;;;;;8.07;76.22;99342.56;4197307;34;33691;-96
2020/12/06 02:50:50;;;;;;;30.20;18.23;;;;;;;8.23;75.91;99344.28;4173926;34;34500;-89
2020/12/06 02:53:26;;;;;;;33.47;19.05;;;;;;;8.19;75.57;99333.03;4185561;34;33488;-89
2020/12/06 02:55:58;;;;;;;28.50;17.25;;;;;;;8.04;76.68;99337.53;4186670;34;33581;-89
2020/12/06 02:58:30;;;;;;;28.80;16.90;;;;;;;8.11;76.33;99333.09;4187998;34;34367;-95
2020/12/06 03:01:02;;;;;;;35.55;19.37;;;;;;;7.80;77.47;99336.72;4175446;34;34419;-90
2020/12/06 03:03:39;;;;;;;29.45;18.37;;;;;;;7.56;78.60;99341.25;4196671;34;34257;-89
2020/12/06 03:06:11;;;;;;;28.20;17.17;;;;;;;7.99;76.94;99329.16;4171828;34;35424;-89
2020/12/06 03:08:44;;;;;;;30.90;17.87;;;;;;;7.98;76.77;99332.88;4200431;34;33802;-90
2020/12/06 03:11:16;;;;;;;31.73;18.15;;;;;;;8.09;76.28;99332.44;4190728;34;34105;-94
2020/12/06 03:13:49;;;;;;;34.78;17.52;;;;;;;8.14;76.03;99327.34;4189452;34;32532;-96
2020/12/06 03:16:24;;;;;;;32.15;18.15;;;;;;;7.94;76.81;99325.16;4166320;34;33321;-91
2020/12/06 03:18:57;;;;;;;29.70;17.75;;;;;;;8.02;76.80;99323.41;4197297;34;34853;-94
2020/12/06 03:21:29;;;;;;;26.05;16.67;;;;;;;7.84;77.34;99321.88;4173558;34;34606;-96
2020/12/06 03:24:17;;;;;;;33.08;17.37;;;;;;;7.87;77.40;99321.50;4211423;34;33848;-91
2020/12/06 03:26:49;;;;;;;31.08;18.08;;;;;;;7.65;78.21;99319.66;4192294;34;34789;-90
2020/12/06 03:29:36;;;;;;;29.15;17.60;;;;;;;7.82;78.02;99317.72;4200263;34;33137;-90
2020/12/06 03:32:09;;;;;;;27.23;17.35;;;;;;;7.94;76.97;99321.63;4217284;34;34613;-90
2020/12/06 03:34:41;;;;;;;27.62;16.60;;;;;;;7.84;77.39;99319.19;4235279;33;34066;-93
2020/12/06 03:37:13;;;;;;;27.85;16.98;;;;;;;8.07;76.08;99321.03;4218605;34;34592;-90
2020/12/06 03:39:46;;;;;;;28.67;17.23;;;;;;;7.47;78.84;99315.44;4222214;34;35248;-96
2020/12/06 03:42:19;;;;;;;28.73;17.98;;;;;;;7.77;77.26;99315.56;4204303;34;33401;-96
2020/12/06 03:45:07;;;;;;;32.83;17.65;;;;;;;7.76;77.32;99308.50;4204185;34;32390;-96
2020/12/06 03:47:39;;;;;;;28.23;16.50;;;;;;;7.49;78.45;99308.00;4206701;34;33292;-96
2020/12/06 03:50:27;;;;;;;29.42;17.02;;;;;;;7.72;77.36;99296.41;4174620;34;33587;-89
2020/12/06 03:52:59;;;;;;;27.70;16.33;;;;;;;7.77;77.24;99307.50;4182518;34;34857;-96
2020/12/06 03:55:46;;;;;;;26.87;16.15;;;;;;;8.17;75.28;99301.94;4188663;34;33748;-89
2020/12/06 03:58:18;;;;;;;29.45;18.23;;;;;;;7.91;76.03;99306.69;4199002;34;33230;-96
2020/12/06 04:01:33;;;;;;;29.20;16.77;;;;;;;7.80;77.16;99304.44;4198514;34;35719;-91
2020/12/06 04:04:05;;;;;;;27.00;16.33;;;;;;;7.57;77.65;99312.50;4216092;34;33534;-96
2020/12/06 04:06:38;;;;;;;30.60;17.05;;;;;;;7.62;77.39;99311.94;4193216;34;33903;-96
2020/12/06 04:09:41;;;;;;;41.80;19.33;;;;;;;7.75;77.21;99306.81;4149396;34;35130;-90
2020/12/06 04:12:14;;;;;;;32.35;18.02;;;;;;;7.70;77.24;99298.47;4213971;34;34523;-89
2020/12/06 04:14:46;;;;;;;29.65;16.60;;;;;;;7.68;76.89;99295.09;4213650;34;33692;-89
2020/12/06 04:17:18;;;;;;;27.90;17.70;;;;;;;7.50;78.03;99307.00;4205855;34;33326;-91
2020/12/06 04:19:51;;;;;;;28.87;17.33;;;;;;;7.11;79.82;99312.41;4213928;34;33681;-90
2020/12/06 04:22:25;;;;;;;32.70;17.55;;;;;;;7.45;78.41;99312.06;4229064;28;33469;-96
2020/12/06 04:25:04;;;;;;;33.90;18.65;;;;;;;7.33;78.37;99324.25;4194803;34;32352;-92
2020/12/06 04:27:37;;;;;;;30.25;17.75;;;;;;;7.37;78.20;99326.41;4215782;34;33173;-93
2020/12/06 04:30:11;;;;;;;33.05;17.67;;;;;;;7.37;78.55;99329.09;4178670;34;32782;-89
2020/12/06 04:32:44;;;;;;;30.73;16.73;;;;;;;7.59;77.42;99316.69;4213434;34;34298;-96
2020/12/06 04:35:16;;;;;;;31.02;16.62;;;;;;;7.80;76.59;99315.19;4192834;34;32516;-96
2020/12/06 04:38:12;;;;;;;31.67;17.90;;;;;;;7.65;77.17;99316.97;4163929;34;35821;-96
2020/12/06 04:40:45;;;;;;;31.58;17.45;;;;;;;7.64;77.03;99316.16;4180767;34;34112;-89
2020/12/06 04:43:19;;;;;;;28.80;16.70;;;;;;;7.72;76.47;99312.56;4214931;34;35067;-90
2020/12/06 04:45:51;;;;;;;27.95;16.40;;;;;;;7.83;75.87;99320.22;4205490;34;33922;-96
2020/12/06 04:49:06;;;;;;;27.62;15.82;;;;;;;7.80;76.40;99325.09;4187790;34;32066;-95
2020/12/06 04:51:44;;;;;;;32.97;17.00;;;;;;;7.53;77.48;99319.22;4172484;34;34716;-90
2020/12/06 04:54:17;;;;;;;28.43;16.07;;;;;;;7.81;76.46;99322.22;4177498;34;33784;-96
2020/12/06 04:56:50;;;;;;;27.20;16.60;;;;;;;7.36;78.59;99329.25;4173252;34;33849;-96
2020/12/06 04:59:41;;;;;;;29.23;16.85;;;;;;;7.52;77.72;99318.41;4184983;34;34077;-96
2020/12/06 05:02:19;;;;;;;32.42;16.77;;;;;;;7.29;78.63;99318.38;4186824;34;34241;-96
2020/12/06 05:04:55;;;;;;;31.85;18.12;;;;;;;7.37;77.97;99312.94;4193026;34;34464;-96
2020/12/06 05:07:29;;;;;;;31.17;18.05;;;;;;;7.44;78.14;99318.47;4204434;34;32627;-96
2020/12/06 05:10:16;;;;;;;26.87;16.37;;;;;;;7.57;77.60;99310.66;4194245;34;31948;-89
2020/12/06 05:12:49;;;;;;;25.65;15.30;;;;;;;7.60;77.18;99310.31;4213120;33;35550;-93
2020/12/06 05:15:27;;;;;;;29.65;15.95;;;;;;;7.84;76.15;99316.50;4218351;34;34597;-91
2020/12/06 05:18:10;;;;;;;27.65;15.38;;;;;;;7.69;76.75;99323.69;4216932;33;34587;-96
2020/12/06 05:21:17;;;;;;;28.08;14.93;;;;;;;7.52;77.52;99331.03;4173322;34;32777;-95
2020/12/06 05:23:52;;;;;;;29.20;16.27;;;;;;;7.00;79.47;99327.09;4189155;33;34445;-93
2020/12/06 05:26:36;;;;;;;28.77;15.77;;;;;;;7.26;78.84;99326.81;4184852;34;33563;-90
2020/12/06 05:29:10;;;;;;;26.20;15.75;;;;;;;7.65;77.21;99317.81;4183409;34;34896;-96
2020/12/06 05:32:01;;;;;;;26.20;15.95;;;;;;;7.38;78.41;99321.84;4182703;34;33525;-96
2020/12/06 05:34:49;;;;;;;27.23;16.27;;;;;;;7.78;76.93;99312.69;4183581;34;33125;-92
2020/12/06 05:37:30;;;;;;;23.05;14.95;;;;;;;7.34;78.39;99315.16;4185684;34;33992;-96
2020/12/06 05:40:16;;;;;;;25.65;15.43;;;;;;;7.71;76.66;99306.34;4229038;28;34186;-90
2020/12/06 05:42:50;;;;;;;23.45;14.45;;;;;;;7.18;78.97;99310.72;4205217;34;34364;-95
2020/12/06 05:45:22;;;;;;;27.83;16.40;;;;;;;7.47;78.08;99303.81;4194846;34;33956;-96
2020/12/06 05:47:58;;;;;;;24.10;14.70;;;;;;;7.38;78.16;99298.50;4212254;34;32961;-92
2020/12/06 05:50:32;;;;;;;25.15;15.57;;;;;;;7.43;77.91;99297.97;4202409;34;35249;-96
2020/12/06 05:53:33;;;;;;;30.20;15.90;;;;;;;7.24;78.71;99310.00;4179661;34;36516;-96
2020/12/06 05:56:13;;;;;;;26.90;15.55;;;;;;;7.30;78.72;99295.84;4208377;28;34442;-90
2020/12/06 05:58:48;;;;;;;26.85;14.70;;;;;;;7.57;77.52;99299.91;4201304;34;35185;-90
2020/12/06 06:01:22;;;;;;;27.87;16.20;;;;;;;7.31;78.21;99299.41;4212858;34;34552;-96
2020/12/06 06:04:45;;;;;;;21.23;13.93;;;;;;;7.45;77.70;99298.63;4194031;34;33760;-90
2020/12/06 06:07:22;;;;;;;30.42;15.68;;;;;;;7.70;76.82;99306.53;4211143;34;33552;-95
2020/12/06 06:10:00;;;;;;;29.10;15.55;;;;;;;7.61;77.12;99305.75;4189729;34;33387;-93
2020/12/06 06:12:33;;;;;;;28.25;16.12;;;;;;;7.07;79.71;99312.75;4202242;34;33552;-96
2020/12/06 06:15:21;;;;;;;24.00;15.37;;;;;;;7.59;77.42;99319.38;4167880;34;32160;-96
2020/12/06 06:17:54;;;;;;;29.30;15.50;;;;;;;7.95;75.64;99313.38;4156471;34;32499;-89
2020/12/06 06:20:29;;;;;;;27.20;14.63;;;;;;;7.71;76.52;99306.34;4158245;34;33141;-89
2020/12/06 06:23:01;;;;;;;26.00;14.43;;;;;;;7.67;76.74;99305.03;4159096;34;33982;-89
2020/12/06 06:25:33;;;;;;;26.45;14.75;;;;;;;7.16;78.81;99313.56;4145227;34;33561;-89
2020/12/06 06:28:07;;;;;;;24.08;13.77;;;;;;;7.75;76.22;99306.81;4150989;34;34654;-96
2020/12/06 06:30:54;;;;;;;25.33;13.23;;;;;;;7.59;76.83;99314.00;4210783;34;32786;-96
2020/12/06 06:33:28;;;;;;;27.33;15.85;;;;;;;7.59;76.70;99310.47;4180512;34;34067;-93
2020/12/06 06:36:21;;;;;;;24.55;15.57;;;;;;;7.56;77.02;99314.34;4208438;33;32317;-96
2020/12/06 06:38:54;;;;;;;24.58;15.18;;;;;;;7.90;75.75;99326.56;4198501;33;32507;-96
2020/12/06 06:41:47;;;;;;;25.17;14.35;;;;;;;8.01;75.51;99302.91;4233321;28;33711;-91
2020/12/06 06:44:20;;;;;;;24.50;13.68;;;;;;;8.16;74.81;99319.09;4186577;34;34143;-92
2020/12/06 06:47:00;;;;;;;24.33;14.15;;;;;;;8.11;75.27;99312.41;4176416;34;34325;-91
2020/12/06 06:49:55;;;;;;;25.97;15.77;;;;;;;7.89;76.49;99319.50;4183429;34;215920;-96
2020/12/06 06:52:29;;;;;;;21.58;13.45;;;;;;;7.64;77.28;99320.69;4165142;34;34892;-95
2020/12/06 06:55:01;;;;;;;27.15;15.30;;;;;;;7.35;78.82;99327.56;4172586;34;33576;-96
2020/12/06 06:57:49;;;;;;;24.58;14.80;;;;;;;7.62;77.73;99318.19;4193466;34;34191;-93
2020/12/06 07:00:29;;;;;;;29.48;20.08;;;;;;;7.85;76.90;99320.03;4168713;34;33862;-91
2020/12/06 07:03:01;;;;;;;22.23;13.38;;;;;;;7.71;77.25;99322.50;4164617;34;33752;-90
2020/12/06 07:05:37;;;;;;;25.83;14.95;;;;;;;7.91;76.89;99328.22;4185635;34;33223;-96
2020/12/06 07:08:36;;;;;;;28.02;15.10;;;;;;;7.97;76.80;99323.16;4231612;28;32203;-96
2020/12/06 07:11:15;;;;;;;26.27;14.43;;;;;;;8.29;75.42;99325.53;4230567;33;32512;-96
2020/12/06 07:13:53;;;;;;;23.15;14.07;;;;;;;7.35;78.94;99332.94;4217035;33;34386;-93
2020/12/06 07:16:26;;;;;;;24.33;14.32;;;;;;;7.87;77.15;99326.06;4206982;33;33836;-91
2020/12/06 07:19:16;;;;;;;22.90;12.57;;;;;;;7.78;77.40;99328.84;4269688;28;34080;31
2020/12/06 07:21:51;;;;;;;21.30;14.25;;;;;;;8.16;76.49;99332.56;4393567;28;31932;-91
2020/12/06 07:24:30;;;;;;;18.60;12.23;;;;;;;8.16;76.47;99338.78;4388614;28;34583;31
2020/12/06 07:27:38;;;;;;;24.23;13.95;;;;;;;8.32;76.02;99343.16;4313983;28;32802;31
2020/12/06 07:30:13;;;;;;;18.60;11.38;;;;;;;8.71;74.61;99357.47;4205297;34;33733;-95
2020/12/06 07:33:00;;;;;;;30.33;15.73;;;;;;;8.21;75.48;99357.91;4161563;29;34642;-91
2020/12/06 07:35:33;;;;;;;24.50;12.85;;;;;;;8.55;74.96;99343.16;4198381;33;35325;-91
2020/12/06 07:38:08;;;;;;;22.70;13.85;;;;;;;8.18;76.39;99349.38;4195626;33;34427;-96
2020/12/06 07:41:04;;;;;;;20.20;12.57;;;;;;;8.58;74.76;99347.34;4191440;34;32625;-96
2020/12/06 07:43:40;;;;;;;19.50;11.85;;;;;;;8.61;74.41;99342.41;4289020;28;33807;-90
2020/12/06 07:46:20;;;;;;;25.08;13.57;;;;;;;8.97;73.26;99338.16;4172088;34;34455;-91
2020/12/06 07:49:22;;;;;;;23.02;12.82;;;;;;;8.45;75.21;99332.66;4132058;34;34982;-91
2020/12/06 07:55:21;;;;;;;22.27;12.93;;;;;;;8.82;73.79;99340.88;4173323;34;33920;-96
2020/12/06 07:57:57;;;;;;;19.55;12.73;;;;;;;8.58;74.34;99336.59;4162707;34;35522;-95
2020/12/06 08:01:03;;;;;;;;;;;;;;;8.30;75.62;99342.53;4438560;28;33134;31
2020/12/06 08:03:42;;;;;;;23.62;14.73;;;;;;;8.81;74.18;99339.19;4253905;28;32584;-90
2020/12/06 08:06:17;;;;;;;20.25;12.90;;;;;;;8.64;74.62;99344.75;4190514;33;33838;-89
2020/12/06 08:08:58;;;;;;;17.02;11.07;;;;;;;8.98;73.10;99346.06;4192599;34;33741;-96
2020/12/06 08:11:58;;;;;;;58.58;36.30;;;;;;;8.65;74.44;99340.19;4191380;34;32532;-91
2020/12/06 08:15:29;;;;;;;18.73;12.32;;;;;;;9.09;73.19;99341.22;4331020;28;20563;-96
2020/12/06 08:18:11;;;;;;;19.52;12.65;;;;;;;8.92;73.66;99340.56;4253218;28;34514;-92
2020/12/06 08:24:26;;;;;;;22.00;12.57;;;;;;;9.11;72.94;99336.47;4869356;28;20065;31
2020/12/06 08:27:50;;;;;;;16.33;10.73;;;;;;;9.40;72.19;99332.91;4483825;28;33013;31
2020/12/06 08:30:56;;;;;;;15.23;10.20;;;;;;;9.20;72.80;99319.16;4432023;28;20102;-95
2020/12/06 08:33:29;;;;;;;16.05;10.30;;;;;;;9.05;73.42;99321.06;4192643;34;32762;-96
2020/12/06 08:36:08;;;;;;;17.20;11.38;;;;;;;9.21;72.84;99328.06;4200511;28;34249;-96
2020/12/06 08:38:58;;;;;;;17.25;10.68;;;;;;;9.07;73.02;99332.47;4168571;34;32124;-93
2020/12/06 08:41:37;;;;;;;19.20;10.65;;;;;;;9.44;72.43;99331.47;4175041;34;33851;-92
2020/12/06 08:44:22;;;;;;;17.05;10.20;;;;;;;9.83;70.76;99327.53;4161463;28;34257;-93
2020/12/06 08:47:26;;;;;;;16.08;10.13;;;;;;;9.57;71.30;99327.28;4163503;34;34176;-96
2020/12/06 08:50:18;;;;;;;19.90;12.52;;;;;;;8.77;74.20;99314.47;4176845;34;33785;-92
2020/12/06 08:53:03;;;;;;;20.30;13.43;;;;;;;8.89;73.82;99304.06;4196374;33;32675;-95
2020/12/06 08:59:35;;;;;;;14.75;9.85;;;;;;;9.63;71.56;99305.75;4641744;28;33896;-96
2020/12/06 09:02:29;;;;;;;16.17;9.63;;;;;;;9.87;70.11;99304.53;4234837;33;31198;-95
2020/12/06 09:05:12;;;;;;;14.93;10.18;;;;;;;10.03;69.41;99295.31;4227901;28;33909;-94
2020/12/06 09:08:09;;;;;;;14.50;10.07;;;;;;;10.44;68.88;99290.25;4183907;34;34744;-93
2020/12/06 09:11:08;;;;;;;13.65;8.55;;;;;;;10.63;67.71;99284.16;4210210;33;34240;-96
2020/12/06 09:14:09;;;;;;;19.12;10.48;;;;;;;10.69;67.76;99299.56;4189521;34;33053;-96
2020/12/06 09:16:59;;;;;;;13.35;9.38;;;;;;;11.05;65.88;99303.91;4200373;34;32872;-95
2020/12/06 09:19:44;;;;;;;15.52;9.05;;;;;;;11.86;63.40;99296.03;4206542;34;33549;-96
2020/12/06 09:22:32;;;;;;;12.02;8.57;;;;;;;12.94;60.14;99293.00;4204607;33;35388;-96
2020/12/06 09:25:24;;;;;;;15.07;8.75;;;;;;;13.73;57.62;99287.44;4221596;28;33251;-96
2020/12/06 09:27:57;;;;;;;14.23;8.93;;;;;;;13.80;56.85;99288.19;4196006;34;32443;-95
2020/12/06 09:30:41;;;;;;;13.35;8.30;;;;;;;13.14;58.02;99290.19;4179927;34;32630;-96
2020/12/06 09:33:18;;;;;;;13.43;9.10;;;;;;;12.22;60.84;99283.97;4192651;34;32803;-94
2020/12/06 09:35:58;;;;;;;14.07;8.68;;;;;;;12.56;60.08;99271.19;4218056;33;32403;-96
2020/12/06 09:38:33;;;;;;;11.45;8.73;;;;;;;12.01;61.04;99270.41;4234294;28;34087;-96
2020/12/06 09:41:19;;;;;;;12.98;8.65;;;;;;;12.31;60.92;99264.56;4178806;34;33419;-95
2020/12/06 09:43:54;;;;;;;13.82;9.75;;;;;;;11.57;62.71;99262.84;4155654;34;32937;-95
2020/12/06 09:46:56;;;;;;;14.25;9.48;;;;;;;12.07;61.97;99247.09;4219560;33;31758;-93
2020/12/06 09:49:40;;;;;;;13.60;9.02;;;;;;;12.09;61.58;99238.75;4193653;34;32265;-94
2020/12/06 09:52:29;;;;;;;17.10;9.43;;;;;;;12.75;59.87;99240.50;4147651;34;34676;-96
2020/12/06 09:55:13;;;;;;;17.85;10.75;;;;;;;13.63;57.56;99239.03;4167763;34;33937;-95
2020/12/06 09:57:58;;;;;;;14.43;9.57;;;;;;;14.81;54.73;99222.91;4180864;34;33743;-96
2020/12/06 10:00:31;;;;;;;13.07;8.98;;;;;;;16.21;50.31;99220.84;4144919;34;32778;-95
2020/12/06 10:03:15;;;;;;;14.05;8.95;;;;;;;17.62;46.68;99210.63;4151025;34;20088;-96
2020/12/06 10:05:51;;;;;;;10.05;7.10;;;;;;;17.61;46.20;99211.69;4174302;34;32769;-96
2020/12/06 10:08:39;;;;;;;12.75;7.90;;;;;;;16.86;47.02;99204.53;4162610;34;33250;-94
2020/12/06 10:11:14;;;;;;;12.32;8.48;;;;;;;16.61;48.33;99192.00;4151417;34;32626;-96
2020/12/06 10:13:58;;;;;;;11.45;7.70;;;;;;;16.88;47.95;99186.03;4169617;34;32721;-94
2020/12/06 10:16:31;;;;;;;12.48;7.20;;;;;;;18.67;44.07;99179.13;4170662;34;33451;-94
2020/12/06 10:19:19;;;;;;;12.55;7.60;;;;;;;19.89;41.14;99176.03;4182825;34;32477;-95
2020/12/06 10:21:54;;;;;;;9.23;7.47;;;;;;;20.15;39.97;99175.38;4181291;34;34479;-96
2020/12/06 10:24:41;;;;;;;;;;;;;;;20.02;39.87;99161.03;4190842;34;32564;-96
2020/12/06 10:27:13;;;;;;;11.35;7.87;;;;;;;21.40;37.42;99175.66;4202887;34;32485;-95
2020/12/06 10:30:01;;;;;;;10.27;7.28;;;;;;;22.25;34.62;99172.34;4192884;34;32330;-94
2020/12/06 10:32:33;;;;;;;10.43;8.07;;;;;;;22.60;35.19;99172.56;4203510;34;32377;-94
2020/12/06 10:35:27;;;;;;;10.30;8.50;;;;;;;21.32;36.36;99164.09;4206234;34;34828;-96
2020/12/06 10:38:00;;;;;;;10.00;7.57;;;;;;;21.84;36.56;99161.38;4222106;33;32760;-95
2020/12/06 10:40:51;;;;;;;9.35;7.35;;;;;;;20.70;37.80;99154.84;4208035;34;32641;-96
2020/12/06 10:43:34;;;;;;;12.15;7.57;;;;;;;21.79;35.37;99155.91;4204574;34;34374;-96
2020/12/06 10:46:10;;;;;;;13.23;7.28;;;;;;;22.20;35.64;99147.56;4193803;34;35752;-93
2020/12/06 10:48:47;;;;;;;10.98;7.95;;;;;;;21.61;35.88;99149.84;4206154;33;33187;-96
2020/12/06 10:51:45;;;;;;;;;;;;;;;22.94;33.98;99149.84;4210463;33;32228;-96
2020/12/06 10:54:18;;;;;;;11.05;7.57;;;;;;;21.62;35.87;99151.50;4214585;34;34247;-96
2020/12/06 10:57:10;;;;;;;10.18;6.93;;;;;;;21.99;36.00;99141.28;4190852;34;34805;-96
2020/12/06 10:59:45;;;;;;;9.93;6.90;;;;;;;21.24;36.74;99144.56;4204782;34;34327;-95
2020/12/06 11:02:21;;;;;;;10.77;7.55;;;;;;;20.76;37.55;99131.81;4181919;34;33542;-96
2020/12/06 11:05:15;;;;;;;9.38;6.50;;;;;;;21.30;36.86;99136.06;4203549;34;34337;-93
2020/12/06 11:08:15;;;;;;;10.65;7.95;;;;;;;20.51;37.67;99116.06;4208617;34;32741;-96
2020/12/06 11:10:51;;;;;;;10.00;8.32;;;;;;;22.44;34.85;99108.44;4192311;34;33650;-96
2020/12/06 11:13:33;;;;;;;11.80;8.85;;;;;;;21.57;36.29;99104.78;4194878;34;33668;-95
2020/12/06 11:16:06;;;;;;;9.82;7.60;;;;;;;22.27;35.20;99103.25;4189877;34;32622;-94
2020/12/06 11:18:40;;;;;;;14.10;9.68;;;;;;;21.48;35.95;99098.12;4191933;34;34122;-95
2020/12/06 11:21:21;;;;;;;13.73;9.23;;;;;;;21.16;36.28;99093.72;4207093;34;33591;-95
2020/12/06 11:24:05;;;;;;;10.73;7.18;;;;;;;22.04;34.77;99084.34;4203600;34;32331;-93
2020/12/06 11:26:38;;;;;;;26.35;18.67;;;;;;;20.82;37.01;99080.47;4199748;34;33652;-95
2020/12/06 11:29:13;;;;;;;30.50;19.92;;;;;;;21.01;36.96;99079.97;4202144;34;33637;-94
2020/12/06 11:31:47;;;;;;;16.90;13.05;;;;;;;21.96;35.52;99071.16;4190884;34;32978;-93
2020/12/06 11:34:33;;;;;;;9.50;7.18;;;;;;;21.25;36.58;99075.59;4205689;34;32150;-93
2020/12/06 11:37:08;;;;;;;11.23;8.75;;;;;;;21.07;36.35;99062.41;4217538;34;33828;-95
2020/12/06 11:39:45;;;;;;;8.73;7.00;;;;;;;21.51;36.35;99056.37;4219365;33;34269;-96
2020/12/06 11:42:24;;;;;;;9.63;6.82;;;;;;;22.16;35.52;99059.25;4218595;34;32584;-96
2020/12/06 11:44:57;;;;;;;9.45;6.55;;;;;;;22.31;34.69;99047.41;4226250;33;33293;-92
2020/12/06 11:47:34;;;;;;;8.38;6.12;;;;;;;21.99;35.13;99056.84;4216210;34;34499;-91
2020/12/06 11:50:10;;;;;;;11.68;6.53;;;;;;;20.28;38.39;99055.03;4224147;33;34014;-92
2020/12/06 11:52:54;;;;;;;12.20;7.20;;;;;;;21.98;35.79;99051.62;4215307;33;34002;-92
2020/12/06 11:55:40;;;;;;;9.40;6.93;;;;;;;21.95;35.37;99058.50;4221668;33;33084;-95
2020/12/06 11:58:13;;;;;;;12.37;7.55;;;;;;;22.10;35.44;99051.31;4222232;33;32501;-93
2020/12/06 12:00:52;;;;;;;16.65;10.45;;;;;;;23.58;33.28;99046.03;4220777;34;33819;-92
2020/12/06 12:03:44;;;;;;;17.17;11.40;;;;;;;23.04;33.46;99028.50;4191818;33;32683;-95
2020/12/06 12:06:22;;;;;;;17.92;11.63;;;;;;;22.35;34.67;99037.50;4179648;34;33928;-93
2020/12/06 12:09:17;;;;;;;15.48;10.00;;;;;;;23.02;33.76;99031.56;4177518;34;32697;-93
2020/12/06 12:11:50;;;;;;;14.65;10.00;;;;;;;23.34;33.22;99027.50;4189880;34;33848;-94
2020/12/06 12:14:47;;;;;;;22.25;17.40;;;;;;;22.89;33.95;99021.22;4228063;28;33693;-96
2020/12/06 12:17:24;;;;;;;19.58;14.00;;;;;;;22.62;34.48;99033.50;4224654;33;32992;-92
2020/12/06 12:20:21;;;;;;;62.65;36.72;;;;;;;22.53;34.42;99024.16;4207167;33;33546;-96
2020/12/06 12:22:56;;;;;;;52.88;31.37;;;;;;;21.30;36.83;99023.41;4216362;34;33228;-92
2020/12/06 12:25:47;;;;;;;9.10;6.85;;;;;;;20.81;37.36;99015.69;4200623;33;34070;-95
2020/12/06 12:28:46;;;;;;;7.40;4.78;;;;;;;20.25;38.44;99022.66;4198973;34;34289;-94
2020/12/06 12:31:23;;;;;;;6.68;4.10;;;;;;;19.56;39.18;99013.47;4215930;33;33500;-94
2020/12/06 12:34:50;;;;;;;8.18;4.57;;;;;;;18.99;40.13;99011.41;4221636;33;33927;-93
2020/12/06 12:37:45;;;;;;;5.83;4.70;;;;;;;18.11;42.09;99018.69;4197685;34;34030;-96
2020/12/06 12:40:22;;;;;;;7.55;4.95;;;;;;;18.25;42.04;99021.00;4208396;34;33419;-94